createdAt,value
2023-01-11T00:00:13.473Z,96127.75
2023-01-11T00:01:15.182Z,96130.44
2023-01-11T00:02:16.928Z,96132.31
2023-01-11T00:03:18.562Z,96128.81
2023-01-11T00:04:20.604Z,96133.66
2023-01-11T00:05:22.338Z,96139.06
2023-01-11T00:06:24.235Z,96132.88
2023-01-11T00:07:26.019Z,96132.84
2023-01-11T00:08:28.273Z,96132.84
2023-01-11T00:09:29.832Z,96127.44
2023-01-11T00:10:32.830Z,96129.06
2023-01-11T00:11:34.403Z,96124.19
2023-01-11T00:12:36.043Z,96128.78
2023-01-11T00:13:37.585Z,96135.53
2023-01-11T00:14:39.229Z,96125.81
2023-01-11T00:15:40.894Z,96130.38
2023-01-11T00:16:42.536Z,96123.91
2023-01-11T00:17:44.074Z,96123.38
2023-01-11T00:18:45.736Z,96121.78
2023-01-11T00:19:47.333Z,96120.69
2023-01-11T00:20:48.970Z,96115.56
2023-01-11T00:21:50.573Z,96116.38
2023-01-11T00:22:52.244Z,96122.84
2023-01-11T00:23:53.929Z,96115.56
2023-01-11T00:24:55.633Z,96120.16
2023-01-11T00:25:57.215Z,96117.97
2023-01-11T00:26:58.833Z,96116.63
2023-01-11T00:28:00.360Z,96111.25
2023-01-11T00:29:02.188Z,96120.63
2023-01-11T00:30:04.494Z,96113.63
2023-01-11T00:31:06.305Z,96111.19
2023-01-11T00:32:08.287Z,96108.47
2023-01-11T00:33:11.003Z,96107.34
2023-01-11T00:34:12.475Z,96112.25
2023-01-11T00:35:14.253Z,96103.09
2023-01-11T00:36:15.879Z,96120.06
2023-01-11T00:37:17.469Z,96108.47
2023-01-11T00:38:46.264Z,96107.94
2023-01-11T00:39:47.924Z,96108.22
2023-01-11T00:40:49.615Z,96108.47
2023-01-11T00:42:09.495Z,96104.44
2023-01-11T00:43:29.842Z,96106.31
2023-01-11T00:44:50.723Z,96106.31
2023-01-11T00:46:11.603Z,96102.00
2023-01-11T00:47:32.513Z,96103.88
2023-01-11T00:48:34.237Z,96100.13
2023-01-11T00:49:36.162Z,96096.09
2023-01-11T00:50:39.465Z,96106.63
2023-01-11T00:51:41.537Z,96098.00
2023-01-11T00:52:43.766Z,96100.44
2023-01-11T00:53:48.459Z,96098.81
2023-01-11T00:54:50.056Z,96109.63
2023-01-11T00:55:51.732Z,96095.03
2023-01-11T00:56:53.838Z,96106.09
2023-01-11T00:57:55.463Z,96106.66
2023-01-11T00:58:57.127Z,96103.69
2023-01-11T00:59:58.752Z,96103.09
2023-01-11T01:01:06.528Z,96110.41
2023-01-11T01:02:09.486Z,96102.03
2023-01-11T01:03:11.148Z,96095.84
2023-01-11T01:04:12.802Z,96103.41
2023-01-11T01:05:14.803Z,96094.78
2023-01-11T01:06:17.328Z,96102.31
2023-01-11T01:07:18.905Z,96106.31
2023-01-11T01:08:20.504Z,96095.28
2023-01-11T01:09:22.340Z,96103.09
2023-01-11T01:10:24.032Z,96098.75
2023-01-11T01:11:25.748Z,96099.31
2023-01-11T01:12:45.897Z,96108.22
2023-01-11T01:14:06.206Z,96102.78
2023-01-11T01:15:08.390Z,96101.44
2023-01-11T01:16:10.023Z,96092.56
2023-01-11T01:17:11.664Z,96096.03
2023-01-11T01:18:13.197Z,96094.72
2023-01-11T01:19:14.895Z,96093.16
2023-01-11T01:20:16.483Z,96083.66
2023-01-11T01:21:18.024Z,96094.44
2023-01-11T01:22:19.618Z,96086.09
2023-01-11T01:23:21.168Z,96088.78
2023-01-11T01:24:23.308Z,96082.78
2023-01-11T01:25:25.021Z,96080.59
2023-01-11T01:26:26.565Z,96081.19
2023-01-11T01:27:28.186Z,96082.19
2023-01-11T01:28:29.772Z,96082.50
2023-01-11T01:29:31.371Z,96078.16
2023-01-11T01:30:33.660Z,96088.94
2023-01-11T01:31:35.347Z,96085.72
2023-01-11T01:32:36.957Z,96077.66
2023-01-11T01:33:38.785Z,96083.50
2023-01-11T01:34:40.327Z,96075.97
2023-01-11T01:35:41.871Z,96080.88
2023-01-11T01:36:43.558Z,96080.34
2023-01-11T01:37:45.192Z,96083.56
2023-01-11T01:38:46.997Z,96083.84
2023-01-11T01:39:48.538Z,96077.09
2023-01-11T01:40:50.171Z,96081.41
2023-01-11T01:41:51.802Z,96074.97
2023-01-11T01:42:54.748Z,96079.28
2023-01-11T01:43:59.153Z,96086.53
2023-01-11T01:45:06.934Z,96080.84
2023-01-11T01:46:08.584Z,96080.25
2023-01-11T01:47:10.480Z,96076.69
2023-01-11T01:48:17.099Z,96074.78
2023-01-11T01:49:18.654Z,96079.63
2023-01-11T01:50:26.637Z,96076.63
2023-01-11T01:51:32.811Z,96077.41
2023-01-11T01:52:35.086Z,96069.56
2023-01-11T01:53:38.325Z,96071.47
2023-01-11T01:54:42.871Z,96062.09
2023-01-11T01:55:50.736Z,96057.44
2023-01-11T01:57:01.214Z,96076.38
2023-01-11T01:58:05.519Z,96066.59
2023-01-11T01:59:12.826Z,96068.69
2023-01-11T02:00:14.591Z,96064.81
2023-01-11T02:01:35.888Z,96061.63
2023-01-11T02:02:43.652Z,96061.34
2023-01-11T02:03:45.395Z,96067.84
2023-01-11T02:04:48.083Z,96066.81
2023-01-11T02:05:51.636Z,96067.94
2023-01-11T02:06:57.289Z,96058.75
2023-01-11T02:07:59.740Z,96060.66
2023-01-11T02:09:31.490Z,96066.56
2023-01-11T02:10:33.020Z,96049.00
2023-01-11T02:11:34.647Z,96055.66
2023-01-11T02:12:40.694Z,96058.41
2023-01-11T02:13:46.132Z,96053.56
2023-01-11T02:14:49.130Z,96049.00
2023-01-11T02:16:10.431Z,96053.06
2023-01-11T02:17:12.052Z,96052.25
2023-01-11T02:18:14.301Z,96042.78
2023-01-11T02:19:47.019Z,96049.00
2023-01-11T02:21:08.421Z,96038.91
2023-01-11T02:22:33.370Z,96035.72
2023-01-11T02:23:59.662Z,96036.25
2023-01-11T02:25:38.449Z,96039.28
2023-01-11T02:27:07.902Z,96041.66
2023-01-11T02:28:17.822Z,96036.25
2023-01-11T02:29:29.095Z,96033.16
2023-01-11T02:30:40.576Z,96032.53
2023-01-11T02:32:01.254Z,96029.81
2023-01-11T02:33:12.671Z,96029.69
2023-01-11T02:34:44.217Z,96030.72
2023-01-11T02:36:04.443Z,96027.19
2023-01-11T02:37:16.704Z,96024.50
2023-01-11T02:38:28.781Z,96025.50
2023-01-11T02:39:43.805Z,96023.88
2023-01-11T02:40:54.043Z,96019.94
2023-01-11T02:42:34.806Z,96019.84
2023-01-11T02:44:18.349Z,96016.69
2023-01-11T02:45:39.626Z,96012.09
2023-01-11T02:46:46.669Z,95994.47
2023-01-11T02:48:02.087Z,96002.41
2023-01-11T02:49:21.500Z,95998.00
2023-01-11T02:50:29.922Z,95989.59
2023-01-11T02:51:41.222Z,95987.38
2023-01-11T02:52:53.133Z,95985.63
2023-01-11T02:53:57.189Z,95985.06
2023-01-11T02:55:00.702Z,95970.50
2023-01-11T02:56:07.657Z,95981.19
2023-01-11T02:57:09.945Z,95987.38
2023-01-11T02:58:12.738Z,95986.56
2023-01-11T02:59:17.837Z,95989.03
2023-01-11T03:00:20.378Z,95989.03
2023-01-11T03:01:22.701Z,95990.34
2023-01-11T03:02:25.319Z,95986.59
2023-01-11T03:03:30.131Z,95992.03
2023-01-11T03:04:36.651Z,95989.78
2023-01-11T03:05:42.106Z,95992.25
2023-01-11T03:06:43.981Z,95992.13
2023-01-11T03:08:11.659Z,95990.22
2023-01-11T03:09:39.279Z,95990.75
2023-01-11T03:11:00.145Z,95981.88
2023-01-11T03:12:28.418Z,95990.38
2023-01-11T03:13:38.005Z,95986.88
2023-01-11T03:15:20.137Z,95988.41
2023-01-11T03:16:24.203Z,95985.22
2023-01-11T03:18:11.697Z,95991.44
2023-01-11T03:19:36.796Z,95977.28
2023-01-11T03:20:43.761Z,95974.41
2023-01-11T03:21:48.900Z,95979.03
2023-01-11T03:23:01.170Z,95970.47
2023-01-11T03:24:27.662Z,95979.25
2023-01-11T03:25:58.409Z,95978.16
2023-01-11T03:27:25.905Z,95980.34
2023-01-11T03:28:39.735Z,95980.06
2023-01-11T03:29:56.116Z,95979.25
2023-01-11T03:31:02.646Z,95956.69
2023-01-11T03:32:32.472Z,95958.59
2023-01-11T03:33:37.090Z,95962.19
2023-01-11T03:35:11.760Z,95964.34
2023-01-11T03:36:35.871Z,95963.13
2023-01-11T03:37:47.932Z,95958.38
2023-01-11T03:38:51.489Z,95959.97
2023-01-11T03:40:04.037Z,95970.13
2023-01-11T03:41:09.667Z,95948.59
2023-01-11T03:42:14.240Z,95953.28
2023-01-11T03:43:18.031Z,95950.25
2023-01-11T03:44:20.208Z,95946.81
2023-01-11T03:45:22.009Z,95950.41
2023-01-11T03:46:29.674Z,95945.44
2023-01-11T03:47:33.235Z,95941.56
2023-01-11T03:48:50.169Z,95938.84
2023-01-11T03:49:54.743Z,95939.91
2023-01-11T03:50:57.622Z,95949.31
2023-01-11T03:52:00.388Z,95941.66
2023-01-11T03:53:04.223Z,95939.78
2023-01-11T03:54:08.050Z,95928.13
2023-01-11T03:55:10.751Z,95943.13
2023-01-11T03:56:14.463Z,95932.66
2023-01-11T03:57:31.156Z,95930.47
2023-01-11T03:58:33.691Z,95933.91
2023-01-11T03:59:35.109Z,95932.94
2023-01-11T04:00:37.149Z,95932.09
2023-01-11T04:01:38.856Z,95929.56
2023-01-11T04:02:41.547Z,95934.06
2023-01-11T04:03:43.150Z,95937.56
2023-01-11T04:04:45.168Z,95927.00
2023-01-11T04:05:51.728Z,95933.38
2023-01-11T04:06:53.334Z,95927.53
2023-01-11T04:07:55.379Z,95928.28
2023-01-11T04:08:56.944Z,95924.81
2023-01-11T04:09:58.831Z,95920.78
2023-01-11T04:11:00.391Z,95935.38
2023-01-11T04:12:01.995Z,95938.91
2023-01-11T04:13:04.161Z,95929.44
2023-01-11T04:14:05.728Z,95937.81
2023-01-11T04:15:09.350Z,95927.53
2023-01-11T04:16:10.951Z,95932.38
2023-01-11T04:17:12.545Z,95925.78
2023-01-11T04:18:14.485Z,95931.50
2023-01-11T04:19:16.001Z,95934.53
2023-01-11T04:20:17.598Z,95932.28
2023-01-11T04:21:19.201Z,95927.91
2023-01-11T04:22:20.823Z,95916.97
2023-01-11T04:23:22.488Z,95919.78
2023-01-11T04:24:24.146Z,95915.22
2023-01-11T04:25:26.038Z,95916.84
2023-01-11T04:26:27.687Z,95926.81
2023-01-11T04:27:29.259Z,95918.06
2023-01-11T04:28:31.048Z,95918.41
2023-01-11T04:29:32.617Z,95911.66
2023-01-11T04:30:35.927Z,95907.63
2023-01-11T04:31:37.594Z,95916.50
2023-01-11T04:32:39.146Z,95913.19
2023-01-11T04:33:40.742Z,95907.47
2023-01-11T04:34:42.393Z,95917.78
2023-01-11T04:35:44.681Z,95920.22
2023-01-11T04:36:46.329Z,95918.59
2023-01-11T04:37:48.050Z,95919.69
2023-01-11T04:38:49.694Z,95913.69
2023-01-11T04:39:51.336Z,95921.53
2023-01-11T04:41:12.882Z,95917.50
2023-01-11T04:42:21.005Z,95916.16
2023-01-11T04:43:22.638Z,95910.91
2023-01-11T04:44:24.626Z,95912.22
2023-01-11T04:45:26.255Z,95920.72
2023-01-11T04:46:27.922Z,95909.94
2023-01-11T04:47:29.520Z,95918.69
2023-01-11T04:48:31.142Z,95919.69
2023-01-11T04:49:32.763Z,95925.78
2023-01-11T04:50:34.412Z,95924.53
2023-01-11T04:51:36.025Z,95923.16
2023-01-11T04:52:37.698Z,95923.72
2023-01-11T04:53:39.324Z,95919.84
2023-01-11T04:54:41.343Z,95922.34
2023-01-11T04:55:43.519Z,95918.88
2023-01-11T04:56:45.186Z,95927.03
2023-01-11T04:57:47.280Z,95933.75
2023-01-11T04:58:48.854Z,95922.78
2023-01-11T04:59:50.524Z,95922.03
2023-01-11T05:00:52.187Z,95927.00
2023-01-11T05:01:53.877Z,95921.09
2023-01-11T05:02:59.078Z,95916.25
2023-01-11T05:04:00.681Z,95917.47
2023-01-11T05:05:02.807Z,95924.66
2023-01-11T05:06:05.352Z,95915.03
2023-01-11T05:07:07.443Z,95922.88
2023-01-11T05:08:09.086Z,95912.72
2023-01-11T05:09:15.827Z,95922.16
2023-01-11T05:10:19.442Z,95925.31
2023-01-11T05:11:22.651Z,95916.25
2023-01-11T05:12:24.447Z,95920.72
2023-01-11T05:13:45.100Z,95921.13
2023-01-11T05:14:46.744Z,95921.13
2023-01-11T05:15:48.431Z,95917.03
2023-01-11T05:16:50.139Z,95911.94
2023-01-11T05:17:51.742Z,95923.38
2023-01-11T05:18:57.074Z,95920.78
2023-01-11T05:19:58.648Z,95910.09
2023-01-11T05:21:00.130Z,95917.34
2023-01-11T05:22:01.641Z,95904.28
2023-01-11T05:23:03.254Z,95908.81
2023-01-11T05:24:07.523Z,95909.63
2023-01-11T05:25:09.353Z,95905.81
2023-01-11T05:26:17.753Z,95904.59
2023-01-11T05:27:19.308Z,95901.88
2023-01-11T05:28:20.932Z,95894.84
2023-01-11T05:29:22.663Z,95904.88
2023-01-11T05:30:24.401Z,95895.88
2023-01-11T05:31:26.290Z,95896.25
2023-01-11T05:32:28.032Z,95890.63
2023-01-11T05:33:29.577Z,95891.94
2023-01-11T05:34:31.174Z,95896.84
2023-01-11T05:35:32.835Z,95904.09
2023-01-11T05:36:35.318Z,95905.28
2023-01-11T05:37:37.531Z,95904.19
2023-01-11T05:38:39.066Z,95903.09
2023-01-11T05:39:40.566Z,95903.78
2023-01-11T05:40:42.210Z,95916.66
2023-01-11T05:41:43.819Z,95909.31
2023-01-11T05:42:46.083Z,95905.69
2023-01-11T05:44:07.744Z,95912.56
2023-01-11T05:45:28.152Z,95910.22
2023-01-11T05:46:30.895Z,95908.13
2023-01-11T05:47:32.458Z,95902.28
2023-01-11T05:48:34.036Z,95914.34
2023-01-11T05:49:35.602Z,95900.16
2023-01-11T05:50:37.190Z,95911.41
2023-01-11T05:51:38.788Z,95917.13
2023-01-11T05:52:40.352Z,95907.38
2023-01-11T05:53:42.104Z,95911.34
2023-01-11T05:54:43.635Z,95914.66
2023-01-11T05:55:58.597Z,95913.91
2023-01-11T05:57:00.176Z,95930.00
2023-01-11T05:58:01.854Z,95921.84
2023-01-11T05:59:04.057Z,95924.22
2023-01-11T06:00:06.285Z,95916.78
2023-01-11T06:01:08.085Z,95915.75
2023-01-11T06:02:09.817Z,95925.50
2023-01-11T06:03:11.543Z,95917.44
2023-01-11T06:04:13.174Z,95921.69
2023-01-11T06:05:15.111Z,95923.78
2023-01-11T06:06:17.858Z,95915.53
2023-01-11T06:07:19.485Z,95920.75
2023-01-11T06:08:21.301Z,95920.75
2023-01-11T06:09:22.885Z,95910.41
2023-01-11T06:10:24.465Z,95912.63
2023-01-11T06:11:26.113Z,95908.41
2023-01-11T06:12:27.746Z,95913.84
2023-01-11T06:13:29.676Z,95913.25
2023-01-11T06:14:31.171Z,95922.19
2023-01-11T06:15:32.753Z,95916.97
2023-01-11T06:16:34.456Z,95917.13
2023-01-11T06:17:36.110Z,95909.91
2023-01-11T06:18:42.816Z,95913.44
2023-01-11T06:19:44.586Z,95911.75
2023-01-11T06:20:53.424Z,95908.19
2023-01-11T06:21:55.035Z,95908.91
2023-01-11T06:22:56.631Z,95906.69
2023-01-11T06:23:58.198Z,95902.38
2023-01-11T06:24:59.799Z,95915.06
2023-01-11T06:26:06.067Z,95909.72
2023-01-11T06:27:07.677Z,95898.44
2023-01-11T06:28:09.300Z,95889.41
2023-01-11T06:29:11.941Z,95900.09
2023-01-11T06:30:13.879Z,95899.34
2023-01-11T06:31:17.549Z,95891.22
2023-01-11T06:32:19.691Z,95889.19
2023-01-11T06:33:24.024Z,95887.38
2023-01-11T06:34:25.817Z,95895.53
2023-01-11T06:35:27.429Z,95881.47
2023-01-11T06:36:29.930Z,95887.22
2023-01-11T06:37:31.646Z,95886.91
2023-01-11T06:38:33.960Z,95886.91
2023-01-11T06:39:35.545Z,95887.50
2023-01-11T06:40:38.726Z,95884.69
2023-01-11T06:41:40.351Z,95891.22
2023-01-11T06:42:42.065Z,95895.06
2023-01-11T06:43:43.732Z,95885.59
2023-01-11T06:44:45.419Z,95882.38
2023-01-11T06:45:47.113Z,95883.38
2023-01-11T06:46:48.771Z,95879.66
2023-01-11T06:47:50.398Z,95880.19
2023-01-11T06:48:52.011Z,95880.19
2023-01-11T06:49:53.610Z,95884.09
2023-01-11T06:50:57.721Z,95877.16
2023-01-11T06:51:59.343Z,95872.72
2023-01-11T06:53:04.190Z,95864.06
2023-01-11T06:54:05.798Z,95881.69
2023-01-11T06:55:07.836Z,95877.75
2023-01-11T06:56:15.000Z,95880.16
2023-01-11T06:57:16.557Z,95871.13
2023-01-11T06:58:18.404Z,95873.75
2023-01-11T06:59:20.329Z,95869.31
2023-01-11T07:00:22.890Z,95881.28
2023-01-11T07:01:26.113Z,95876.75
2023-01-11T07:02:27.939Z,95868.41
2023-01-11T07:03:29.578Z,95878.16
2023-01-11T07:04:31.365Z,95880.88
2023-01-11T07:05:33.955Z,95871.41
2023-01-11T07:06:35.924Z,95871.94
2023-01-11T07:07:38.484Z,95870.75
2023-01-11T07:08:39.943Z,95869.69
2023-01-11T07:09:41.578Z,95873.56
2023-01-11T07:10:43.829Z,95877.16
2023-01-11T07:11:45.415Z,95876.94
2023-01-11T07:12:46.975Z,95871.75
2023-01-11T07:13:48.547Z,95865.97
2023-01-11T07:14:50.118Z,95870.53
2023-01-11T07:15:54.044Z,95875.66
2023-01-11T07:16:55.873Z,95869.72
2023-01-11T07:17:59.093Z,95875.03
2023-01-11T07:19:00.678Z,95876.84
2023-01-11T07:20:02.898Z,95856.34
2023-01-11T07:21:04.473Z,95863.56
2023-01-11T07:22:06.291Z,95875.75
2023-01-11T07:23:08.015Z,95874.16
2023-01-11T07:24:09.726Z,95867.09
2023-01-11T07:25:11.365Z,95874.16
2023-01-11T07:26:14.280Z,95862.69
2023-01-11T07:27:16.100Z,95872.75
2023-01-11T07:28:17.762Z,95866.88
2023-01-11T07:29:19.982Z,95865.78
2023-01-11T07:30:21.582Z,95873.13
2023-01-11T07:31:23.208Z,95872.91
2023-01-11T07:32:24.807Z,95871.31
2023-01-11T07:33:26.730Z,95853.53
2023-01-11T07:34:28.331Z,95866.81
2023-01-11T07:35:29.864Z,95866.09
2023-01-11T07:36:31.457Z,95859.97
2023-01-11T07:37:34.095Z,95869.09
2023-01-11T07:38:35.791Z,95871.59
2023-01-11T07:39:43.438Z,95869.28
2023-01-11T07:40:45.581Z,95856.19
2023-01-11T07:42:05.436Z,95864.25
2023-01-11T07:43:14.531Z,95859.97
2023-01-11T07:44:16.199Z,95857.00
2023-01-11T07:45:17.895Z,95855.13
2023-01-11T07:46:19.622Z,95856.44
2023-01-11T07:47:21.257Z,95861.25
2023-01-11T07:48:26.199Z,95850.38
2023-01-11T07:49:28.092Z,95852.38
2023-01-11T07:50:29.854Z,95847.63
2023-01-11T07:51:31.557Z,95853.44
2023-01-11T07:52:33.137Z,95855.44
2023-01-11T07:53:34.733Z,95854.19
2023-01-11T07:54:36.243Z,95853.72
2023-01-11T07:55:39.659Z,95847.84
2023-01-11T07:56:41.331Z,95848.66
2023-01-11T07:57:42.922Z,95857.31
2023-01-11T07:58:44.483Z,95857.06
2023-01-11T07:59:46.077Z,95865.72
2023-01-11T08:00:47.749Z,95852.81
2023-01-11T08:01:49.458Z,95853.19
2023-01-11T08:02:54.702Z,95850.66
2023-01-11T08:03:57.051Z,95853.44
2023-01-11T08:04:58.678Z,95848.66
2023-01-11T08:06:00.280Z,95850.88
2023-01-11T08:07:01.916Z,95843.72
2023-01-11T08:08:04.326Z,95846.06
2023-01-11T08:09:06.404Z,95832.31
2023-01-11T08:10:09.050Z,95828.59
2023-01-11T08:11:30.198Z,95840.84
2023-01-11T08:12:51.572Z,95835.03
2023-01-11T08:14:11.853Z,95829.91
2023-01-11T08:15:14.181Z,95832.00
2023-01-11T08:16:15.818Z,95826.75
2023-01-11T08:17:17.452Z,95815.38
2023-01-11T08:18:19.808Z,95824.66
2023-01-11T08:19:21.396Z,95815.59
2023-01-11T08:20:23.483Z,95826.97
2023-01-11T08:21:25.163Z,95817.66
2023-01-11T08:22:26.772Z,95828.78
2023-01-11T08:23:30.089Z,95832.78
2023-01-11T08:24:31.711Z,95828.59
2023-01-11T08:25:33.588Z,95823.13
2023-01-11T08:26:35.242Z,95819.31
2023-01-11T08:27:36.876Z,95819.66
2023-01-11T08:28:38.439Z,95819.19
2023-01-11T08:29:43.969Z,95823.72
2023-01-11T08:30:45.707Z,95825.91
2023-01-11T08:31:47.919Z,95821.19
2023-01-11T08:32:49.482Z,95815.72
2023-01-11T08:33:51.315Z,95822.03
2023-01-11T08:34:52.929Z,95816.59
2023-01-11T08:35:54.549Z,95808.75
2023-01-11T08:36:57.593Z,95827.34
2023-01-11T08:37:59.191Z,95819.50
2023-01-11T08:39:00.824Z,95821.41
2023-01-11T08:40:02.392Z,95805.22
2023-01-11T08:41:10.833Z,95825.28
2023-01-11T08:42:12.517Z,95813.28
2023-01-11T08:43:14.112Z,95807.19
2023-01-11T08:44:22.343Z,95806.56
2023-01-11T08:45:34.564Z,95802.25
2023-01-11T08:46:38.082Z,95805.47
2023-01-11T08:47:39.806Z,95807.38
2023-01-11T08:48:41.551Z,95811.53
2023-01-11T08:49:43.208Z,95810.09
2023-01-11T08:50:45.024Z,95814.38
2023-01-11T08:51:46.597Z,95803.00
2023-01-11T08:52:48.237Z,95817.28
2023-01-11T08:53:51.788Z,95813.25
2023-01-11T08:54:53.437Z,95817.47
2023-01-11T08:55:55.007Z,95813.47
2023-01-11T08:56:56.609Z,95819.72
2023-01-11T08:57:58.221Z,95806.72
2023-01-11T08:59:01.321Z,95812.97
2023-01-11T09:00:04.652Z,95815.72
2023-01-11T09:01:09.105Z,95820.38
2023-01-11T09:02:12.145Z,95821.84
2023-01-11T09:03:15.132Z,95822.38
2023-01-11T09:04:24.687Z,95825.22
2023-01-11T09:05:27.119Z,95818.34
2023-01-11T09:06:28.702Z,95826.88
2023-01-11T09:07:30.292Z,95824.31
2023-01-11T09:08:31.952Z,95824.78
2023-01-11T09:09:33.601Z,95830.19
2023-01-11T09:10:35.292Z,95828.41
2023-01-11T09:11:56.404Z,95833.69
2023-01-11T09:12:58.223Z,95826.97
2023-01-11T09:13:59.921Z,95814.47
2023-01-11T09:15:01.525Z,95825.06
2023-01-11T09:16:03.213Z,95829.19
2023-01-11T09:17:04.806Z,95824.75
2023-01-11T09:18:06.485Z,95824.97
2023-01-11T09:19:08.083Z,95834.16
2023-01-11T09:20:12.022Z,95848.63
2023-01-11T09:21:13.989Z,95829.97
2023-01-11T09:22:16.232Z,95833.59
2023-01-11T09:23:17.838Z,95828.19
2023-01-11T09:24:19.491Z,95838.03
2023-01-11T09:25:21.342Z,95838.34
2023-01-11T09:26:23.007Z,95842.38
2023-01-11T09:27:24.937Z,95838.81
2023-01-11T09:28:26.519Z,95851.00
2023-01-11T09:29:28.148Z,95847.28
2023-01-11T09:30:29.831Z,95845.88
2023-01-11T09:31:31.455Z,95850.38
2023-01-11T09:32:33.073Z,95849.38
2023-01-11T09:33:34.804Z,95845.88
2023-01-11T09:34:36.483Z,95852.63
2023-01-11T09:35:41.856Z,95855.06
2023-01-11T09:36:46.159Z,95856.13
2023-01-11T09:37:49.491Z,95852.38
2023-01-11T09:38:52.932Z,95847.34
2023-01-11T09:39:54.669Z,95858.78
2023-01-11T09:41:20.453Z,95856.41
2023-01-11T09:42:32.503Z,95858.41
2023-01-11T09:43:39.902Z,95850.97
2023-01-11T09:45:17.391Z,95853.59
2023-01-11T09:46:19.150Z,95852.06
2023-01-11T09:47:42.397Z,95853.72
2023-01-11T09:48:48.463Z,95853.34
2023-01-11T09:49:56.055Z,95850.94
2023-01-11T09:50:58.496Z,95843.88
2023-01-11T09:52:30.069Z,95844.84
2023-01-11T09:53:34.961Z,95840.56
2023-01-11T09:54:36.704Z,95840.56
2023-01-11T09:55:40.093Z,95835.75
2023-01-11T09:56:53.712Z,95842.09
2023-01-11T09:58:11.837Z,95847.56
2023-01-11T09:59:27.031Z,95838.72
2023-01-11T10:00:50.054Z,95845.47
2023-01-11T10:02:05.762Z,95838.56
2023-01-11T10:03:25.896Z,95837.16
2023-01-11T10:04:51.994Z,95843.47
2023-01-11T10:06:09.097Z,95836.56
2023-01-11T10:07:17.132Z,95843.47
2023-01-11T10:18:22.985Z,95841.13
2023-01-11T10:18:25.904Z,95832.75
2023-01-11T10:19:19.646Z,95832.06
2023-01-11T10:20:38.379Z,95833.34
2023-01-11T10:21:46.448Z,95832.59
2023-01-11T10:22:48.945Z,95825.19
2023-01-11T10:23:55.312Z,95828.22
2023-01-11T10:25:07.425Z,95822.13
2023-01-11T10:26:23.212Z,95821.63
2023-01-11T10:27:38.036Z,95818.50
2023-01-11T10:29:22.371Z,95819.34
2023-01-11T10:30:28.873Z,95818.31
2023-01-11T10:31:45.683Z,95819.28
2023-01-11T10:33:10.146Z,95820.91
2023-01-11T10:34:49.900Z,95812.25
2023-01-11T10:36:20.777Z,95805.56
2023-01-11T10:37:32.467Z,95816.47
2023-01-11T10:39:35.844Z,95808.91
2023-01-11T10:41:00.007Z,95820.16
2023-01-11T10:42:09.548Z,95813.94
2023-01-11T10:43:20.691Z,95816.97
2023-01-11T10:44:32.667Z,95811.56
2023-01-11T10:45:43.169Z,95809.75
2023-01-11T10:46:48.539Z,95815.88
2023-01-11T10:48:06.287Z,95814.59
2023-01-11T10:49:38.403Z,95810.13
2023-01-11T10:50:41.432Z,95806.59
2023-01-11T10:51:46.407Z,95805.81
2023-01-11T10:53:12.787Z,95806.44
2023-01-11T10:54:17.895Z,95798.59
2023-01-11T10:55:28.509Z,95808.88
2023-01-11T10:57:01.679Z,95804.84
2023-01-11T10:58:11.395Z,95807.91
2023-01-11T10:59:24.497Z,95801.31
2023-01-11T11:00:38.295Z,95794.25
2023-01-11T11:01:52.844Z,95795.72
2023-01-11T11:03:19.495Z,95790.91
2023-01-11T11:04:24.251Z,95784.97
2023-01-11T11:06:03.789Z,95791.38
2023-01-11T11:07:34.710Z,95784.31
2023-01-11T11:09:05.534Z,95783.06
2023-01-11T11:10:25.570Z,95774.22
2023-01-11T11:11:35.406Z,95781.28
2023-01-11T11:12:39.495Z,95767.31
2023-01-11T11:13:45.999Z,95757.88
2023-01-11T11:14:57.517Z,95763.66
2023-01-11T11:16:32.342Z,95763.78
2023-01-11T11:17:38.353Z,95763.16
2023-01-11T11:18:39.993Z,95766.22
2023-01-11T11:19:42.047Z,95760.25
2023-01-11T11:20:46.296Z,95756.59
2023-01-11T11:21:48.638Z,95759.16
2023-01-11T11:22:52.074Z,95763.16
2023-01-11T11:24:02.688Z,95757.72
2023-01-11T11:25:23.065Z,95758.06
2023-01-11T11:26:29.287Z,95755.63
2023-01-11T11:27:38.503Z,95763.31
2023-01-11T11:29:01.970Z,95756.59
2023-01-11T11:30:04.461Z,95756.13
2023-01-11T11:31:07.659Z,95758.38
2023-01-11T11:32:23.984Z,95763.16
2023-01-11T11:33:36.284Z,95768.75
2023-01-11T11:34:37.898Z,95762.69
2023-01-11T11:35:47.007Z,95762.38
2023-01-11T11:36:52.243Z,95771.50
2023-01-11T11:37:54.303Z,95763.97
2023-01-11T11:39:03.434Z,95765.25
2023-01-11T11:40:05.721Z,95762.19
2023-01-11T11:41:08.379Z,95768.94
2023-01-11T11:42:16.115Z,95756.59
2023-01-11T11:43:23.533Z,95768.16
2023-01-11T11:44:27.330Z,95757.84
2023-01-11T11:45:29.092Z,95758.06
2023-01-11T11:46:30.881Z,95759.47
2023-01-11T11:47:32.572Z,95750.78
2023-01-11T11:48:34.799Z,95748.72
2023-01-11T11:49:36.917Z,95748.06
2023-01-11T11:50:46.056Z,95745.69
2023-01-11T11:51:47.997Z,95745.53
2023-01-11T11:52:52.349Z,95748.75
2023-01-11T11:53:57.906Z,95748.75
2023-01-11T11:54:59.691Z,95732.34
2023-01-11T11:56:34.129Z,95747.13
2023-01-11T11:57:44.504Z,95736.53
2023-01-11T11:58:46.350Z,95733.00
2023-01-11T11:59:50.004Z,95733.19
2023-01-11T12:00:52.912Z,95732.66
2023-01-11T12:02:05.288Z,95725.78
2023-01-11T12:03:15.051Z,95714.88
2023-01-11T12:04:21.432Z,95730.22
2023-01-11T12:05:23.189Z,95721.41
2023-01-11T12:06:27.165Z,95720.63
2023-01-11T12:07:40.450Z,95730.38
2023-01-11T12:08:47.866Z,95721.06
2023-01-11T12:09:57.205Z,95722.34
2023-01-11T12:11:00.515Z,95710.22
2023-01-11T12:12:02.702Z,95723.81
2023-01-11T12:13:05.259Z,95712.25
2023-01-11T12:14:15.777Z,95711.75
2023-01-11T12:15:22.887Z,95715.78
2023-01-11T12:16:31.039Z,95714.00
2023-01-11T12:17:32.612Z,95713.22
2023-01-11T12:18:37.142Z,95714.03
2023-01-11T12:19:45.189Z,95709.69
2023-01-11T12:20:47.257Z,95710.34
2023-01-11T12:21:50.623Z,95712.94
2023-01-11T12:23:17.789Z,95716.81
2023-01-11T12:24:20.234Z,95713.91
2023-01-11T12:25:26.805Z,95706.50
2023-01-11T12:26:33.683Z,95711.31
2023-01-11T12:27:52.862Z,95712.16
2023-01-11T12:29:06.891Z,95702.38
2023-01-11T12:30:27.298Z,95706.69
2023-01-11T12:31:43.094Z,95709.06
2023-01-11T12:33:16.736Z,95705.09
2023-01-11T12:34:39.988Z,95703.97
2023-01-11T12:36:03.316Z,95704.75
2023-01-11T12:37:21.058Z,95699.31
2023-01-11T12:39:02.804Z,95700.28
2023-01-11T12:40:04.589Z,95689.66
2023-01-11T12:41:20.920Z,95697.03
2023-01-11T12:42:40.645Z,95687.09
2023-01-11T12:43:42.182Z,95691.44
2023-01-11T12:45:04.730Z,95694.63
2023-01-11T12:46:21.032Z,95690.75
2023-01-11T12:47:59.632Z,95697.97
2023-01-11T12:49:33.441Z,95697.69
2023-01-11T12:50:58.708Z,95688.34
2023-01-11T12:52:29.312Z,95698.56
2023-01-11T12:53:40.656Z,95684.59
2023-01-11T12:55:23.603Z,95686.84
2023-01-11T12:56:43.612Z,95677.50
2023-01-11T12:57:55.775Z,95674.16
2023-01-11T12:59:21.994Z,95684.44
2023-01-11T13:00:42.471Z,95682.03
2023-01-11T13:01:53.794Z,95683.91
2023-01-11T13:03:28.441Z,95680.09
2023-01-11T13:04:45.356Z,95688.13
2023-01-11T13:05:49.856Z,95680.78
2023-01-11T13:07:13.474Z,95675.03
2023-01-11T13:08:29.160Z,95678.09
2023-01-11T13:09:33.773Z,95682.41
2023-01-11T13:10:47.622Z,95683.53
2023-01-11T13:11:54.979Z,95680.84
2023-01-11T13:13:02.846Z,95685.66
2023-01-11T13:14:23.463Z,95676.97